Russell, Canada
Current Conditions -  °F | °C
As of 6:00 PM on Sunday 23 Nov 2014 (Local Time) from CYQV Reporting Station
Clear Clear  
Wind Chill: -14°   Ceiling: Unl
Heat Index:   Visibility: 9mi
Dew Point: -2°   Wind: 13mph
Humidity: 78%   Direction: 310°NW
Pressure: 29.82"   Gusts: NA
Location:  50.78°N, 101.28°W
Report Text: CYQV 240000Z AUTO 31011KT 9SM CLR M16/M19 A2982 RMK SLP143
Loading
Personal Weather Stations






























Interactive Weather Map New forecast layout! Learn more

10-Day Weather Forecast

Advertisements
Track Severe Weather on mobile